sensor_id;sensor_type;location;lat;lon;timestamp;pressure;altitude;pressure_sealevel;temperature;humidity
13015;BME280;6573;57.696;11.950;2023-04-15T00:00:38;101432.56;;;13.30;100.00
13015;BME280;6573;57.696;11.950;2023-04-15T00:03:07;101434.44;;;12.88;100.00
13015;BME280;6573;57.696;11.950;2023-04-15T00:05:35;101442.34;;;13.02;100.00
13015;BME280;6573;57.696;11.950;2023-04-15T00:08:04;101441.47;;;12.89;100.00
13015;BME280;6573;57.696;11.950;2023-04-15T00:10:33;101408.06;;;12.70;100.00
13015;BME280;6573;57.696;11.950;2023-04-15T00:13:01;101451.13;;;13.09;100.00
13015;BME280;6573;57.696;11.950;2023-04-15T00:15:30;101452.84;;;13.26;100.00
13015;BME280;6573;57.696;11.950;2023-04-15T00:17:58;101454.56;;;13.38;100.00
13015;BME280;6573;57.696;11.950;2023-04-15T00:20:27;101455.47;;;13.25;100.00
13015;BME280;6573;57.696;11.950;2023-04-15T00:22:55;101452.00;;;13.20;100.00
13015;BME280;6573;57.696;11.950;2023-04-15T00:25:24;101461.69;;;13.12;100.00
13015;BME280;6573;57.696;11.950;2023-04-15T00:27:54;101452.91;;;12.96;100.00
13015;BME280;6573;57.696;11.950;2023-04-15T00:30:22;101452.03;;;13.09;100.00
13015;BME280;6573;57.696;11.950;2023-04-15T00:32:51;101456.38;;;13.18;100.00
13015;BME280;6573;57.696;11.950;2023-04-15T00:35:19;101450.19;;;13.34;100.00
13015;BME280;6573;57.696;11.950;2023-04-15T00:37:49;101448.34;;;13.45;100.00
13015;BME280;6573;57.696;11.950;2023-04-15T00:40:20;101446.50;;;13.62;100.00
13015;BME280;6573;57.696;11.950;2023-04-15T00:42:50;101444.78;;;13.58;100.00
13015;BME280;6573;57.696;11.950;2023-04-15T00:45:20;101457.06;;;13.62;100.00
13015;BME280;6573;57.696;11.950;2023-04-15T00:47:49;101462.53;;;13.29;100.00
13015;BME280;6573;57.696;11.950;2023-04-15T00:50:18;101458.13;;;13.26;100.00
13015;BME280;6573;57.696;11.950;2023-04-15T00:52:46;101464.31;;;13.27;100.00
13015;BME280;6573;57.696;11.950;2023-04-15T00:55:15;101460.75;;;13.25;100.00
13015;BME280;6573;57.696;11.950;2023-04-15T00:57:43;101462.53;;;13.23;100.00
13015;BME280;6573;57.696;11.950;2023-04-15T01:00:12;101460.78;;;13.19;100.00
13015;BME280;6573;57.696;11.950;2023-04-15T01:02:42;101462.59;;;12.86;100.00
13015;BME280;6573;57.696;11.950;2023-04-15T01:05:11;101466.13;;;12.76;100.00
13015;BME280;6573;57.696;11.950;2023-04-15T01:07:39;101469.63;;;12.90;100.00
13015;BME280;6573;57.696;11.950;2023-04-15T01:10:08;101459.06;;;12.90;100.00
13015;BME280;6573;57.696;11.950;2023-04-15T01:12:36;101453.81;;;12.84;100.00
13015;BME280;6573;57.696;11.950;2023-04-15T01:15:06;101450.31;;;12.76;100.00
13015;BME280;6573;57.696;11.950;2023-04-15T01:17:35;101455.63;;;12.55;100.00
13015;BME280;6573;57.696;11.950;2023-04-15T01:20:07;101456.47;;;12.56;100.00
13015;BME280;6573;57.696;11.950;2023-04-15T01:22:36;101458.25;;;12.51;100.00
13015;BME280;6573;57.696;11.950;2023-04-15T01:25:09;101453.84;;;12.36;100.00
13015;BME280;6573;57.696;11.950;2023-04-15T01:27:40;101453.84;;;12.54;100.00
13015;BME280;6573;57.696;11.950;2023-04-15T01:30:09;101455.56;;;12.70;100.00
13015;BME280;6573;57.696;11.950;2023-04-15T01:32:39;101455.59;;;12.82;100.00
13015;BME280;6573;57.696;11.950;2023-04-15T01:35:08;101453.84;;;12.48;100.00
13015;BME280;6573;57.696;11.950;2023-04-15T01:37:36;101453.84;;;12.21;100.00
13015;BME280;6573;57.696;11.950;2023-04-15T01:40:06;101460.88;;;12.46;100.00
13015;BME280;6573;57.696;11.950;2023-04-15T01:42:35;101456.47;;;12.12;100.00
13015;BME280;6573;57.696;11.950;2023-04-15T01:45:06;101451.19;;;12.09;100.00
13015;BME280;6573;57.696;11.950;2023-04-15T01:47:35;101452.09;;;12.08;100.00
13015;BME280;6573;57.696;11.950;2023-04-15T01:50:04;101443.31;;;12.30;100.00
13015;BME280;6573;57.696;11.950;2023-04-15T01:52:32;101452.06;;;12.11;100.00
13015;BME280;6573;57.696;11.950;2023-04-15T01:55:00;101455.59;;;12.07;100.00
13015;BME280;6573;57.696;11.950;2023-04-15T01:57:29;101454.69;;;11.97;100.00
13015;BME280;6573;57.696;11.950;2023-04-15T01:59:57;101455.56;;;11.92;100.00
13015;BME280;6573;57.696;11.950;2023-04-15T02:02:28;101453.81;;;11.97;100.00
13015;BME280;6573;57.696;11.950;2023-04-15T02:04:56;101452.06;;;12.14;100.00
13015;BME280;6573;57.696;11.950;2023-04-15T02:07:25;101459.13;;;12.15;100.00
13015;BME280;6573;57.696;11.950;2023-04-15T02:09:54;101460.91;;;12.25;100.00
13015;BME280;6573;57.696;11.950;2023-04-15T02:12:23;101459.09;;;12.06;100.00
13015;BME280;6573;57.696;11.950;2023-04-15T02:14:51;101457.38;;;12.17;100.00
13015;BME280;6573;57.696;11.950;2023-04-15T02:17:20;101459.13;;;12.27;100.00
13015;BME280;6573;57.696;11.950;2023-04-15T02:19:49;101452.03;;;11.85;100.00
13015;BME280;6573;57.696;11.950;2023-04-15T02:22:18;101462.63;;;12.08;100.00
13015;BME280;6573;57.696;11.950;2023-04-15T02:24:46;101467.00;;;12.04;100.00
13015;BME280;6573;57.696;11.950;2023-04-15T02:27:17;101472.31;;;12.16;100.00
13015;BME280;6573;57.696;11.950;2023-04-15T02:29:45;101471.44;;;12.22;100.00
13015;BME280;6573;57.696;11.950;2023-04-15T02:32:14;101474.09;;;12.32;100.00
13015;BME280;6573;57.696;11.950;2023-04-15T02:34:42;101473.19;;;12.41;100.00
13015;BME280;6573;57.696;11.950;2023-04-15T02:37:13;101476.72;;;12.52;100.00
13015;BME280;6573;57.696;11.950;2023-04-15T02:39:41;101471.44;;;12.46;100.00
13015;BME280;6573;57.696;11.950;2023-04-15T02:42:10;101481.97;;;12.43;100.00
13015;BME280;6573;57.696;11.950;2023-04-15T02:44:39;101476.72;;;12.46;100.00
13015;BME280;6573;57.696;11.950;2023-04-15T02:47:07;101463.53;;;12.34;100.00
13015;BME280;6573;57.696;11.950;2023-04-15T02:49:37;101481.13;;;12.50;100.00
13015;BME280;6573;57.696;11.950;2023-04-15T02:52:06;101478.50;;;12.62;100.00
13015;BME280;6573;57.696;11.950;2023-04-15T02:54:35;101476.72;;;12.61;100.00
13015;BME280;6573;57.696;11.950;2023-04-15T02:57:03;101482.00;;;12.61;100.00
13015;BME280;6573;57.696;11.950;2023-04-15T02:59:32;101482.84;;;12.71;100.00
13015;BME280;6573;57.696;11.950;2023-04-15T03:02:00;101483.75;;;12.38;100.00
13015;BME280;6573;57.696;11.950;2023-04-15T03:04:29;101487.28;;;12.25;100.00
13015;BME280;6573;57.696;11.950;2023-04-15T03:06:57;101480.22;;;12.21;100.00
13015;BME280;6573;57.696;11.950;2023-04-15T03:09:26;101482.00;;;12.25;100.00
13015;BME280;6573;57.696;11.950;2023-04-15T03:11:56;101481.97;;;12.19;100.00
13015;BME280;6573;57.696;11.950;2023-04-15T03:14:24;101485.50;;;12.12;100.00
13015;BME280;6573;57.696;11.950;2023-04-15T03:16:52;101466.13;;;12.07;100.00
13015;BME280;6573;57.696;11.950;2023-04-15T03:19:20;101483.75;;;12.38;100.00
13015;BME280;6573;57.696;11.950;2023-04-15T03:21:49;101488.16;;;12.31;100.00
13015;BME280;6573;57.696;11.950;2023-04-15T03:24:17;101490.78;;;12.27;100.00
13015;BME280;6573;57.696;11.950;2023-04-15T03:26:45;101492.53;;;12.25;100.00
13015;BME280;6573;57.696;11.950;2023-04-15T03:29:15;101494.31;;;12.32;100.00
13015;BME280;6573;57.696;11.950;2023-04-15T03:31:43;101489.00;;;12.11;100.00
13015;BME280;6573;57.696;11.950;2023-04-15T03:34:11;101490.78;;;12.18;100.00
13015;BME280;6573;57.696;11.950;2023-04-15T03:36:41;101489.03;;;12.35;100.00
13015;BME280;6573;57.696;11.950;2023-04-15T03:39:10;101494.31;;;12.32;100.00
13015;BME280;6573;57.696;11.950;2023-04-15T03:41:38;101497.81;;;12.19;100.00
13015;BME280;6573;57.696;11.950;2023-04-15T03:44:06;101497.78;;;12.07;100.00
13015;BME280;6573;57.696;11.950;2023-04-15T03:46:36;101509.22;;;12.09;100.00
13015;BME280;6573;57.696;11.950;2023-04-15T03:49:05;101507.47;;;12.30;100.00
13015;BME280;6573;57.696;11.950;2023-04-15T03:51:33;101505.69;;;11.99;100.00
13015;BME280;6573;57.696;11.950;2023-04-15T03:54:02;101499.56;;;12.14;100.00
13015;BME280;6573;57.696;11.950;2023-04-15T03:56:30;101501.31;;;12.12;100.00
13015;BME280;6573;57.696;11.950;2023-04-15T03:58:58;101510.97;;;12.02;100.00
13015;BME280;6573;57.696;11.950;2023-04-15T04:01:27;101507.50;;;12.15;100.00
13015;BME280;6573;57.696;11.950;2023-04-15T04:03:57;101502.16;;;12.03;100.00
13015;BME280;6573;57.696;11.950;2023-04-15T04:06:25;101514.50;;;12.13;100.00
13015;BME280;6573;57.696;11.950;2023-04-15T04:08:53;101511.81;;;11.91;100.00
13015;BME280;6573;57.696;11.950;2023-04-15T04:11:22;101501.28;;;12.06;100.00
13015;BME280;6573;57.696;11.950;2023-04-15T04:13:50;101510.09;;;12.05;100.00
13015;BME280;6573;57.696;11.950;2023-04-15T04:16:18;101508.31;;;11.98;100.00
13015;BME280;6573;57.696;11.950;2023-04-15T04:18:46;101506.56;;;12.09;100.00
13015;BME280;6573;57.696;11.950;2023-04-15T04:21:16;101508.38;;;12.20;100.00
13015;BME280;6573;57.696;11.950;2023-04-15T04:23:45;101515.41;;;12.38;100.00
13015;BME280;6573;57.696;11.950;2023-04-15T04:26:13;101510.06;;;11.97;100.00
13015;BME280;6573;57.696;11.950;2023-04-15T04:28:42;101517.06;;;11.89;100.00
13015;BME280;6573;57.696;11.950;2023-04-15T04:31:10;101502.94;;;11.69;100.00
13015;BME280;6573;57.696;11.950;2023-04-15T04:33:39;101525.75;;;11.65;100.00
13015;BME280;6573;57.696;11.950;2023-04-15T04:36:07;101529.31;;;11.74;100.00
13015;BME280;6573;57.696;11.950;2023-04-15T04:38:36;101520.53;;;11.72;100.00
13015;BME280;6573;57.696;11.950;2023-04-15T04:41:05;101527.56;;;11.79;100.00
13015;BME280;6573;57.696;11.950;2023-04-15T04:43:33;101536.41;;;11.81;100.00
13015;BME280;6573;57.696;11.950;2023-04-15T04:46:01;101530.28;;;12.01;100.00
13015;BME280;6573;57.696;11.950;2023-04-15T04:48:29;101531.19;;;12.11;100.00
13015;BME280;6573;57.696;11.950;2023-04-15T04:50:58;101537.34;;;12.11;100.00
13015;BME280;6573;57.696;11.950;2023-04-15T04:53:26;101544.38;;;12.11;100.00
13015;BME280;6573;57.696;11.950;2023-04-15T04:55:56;101539.13;;;12.17;100.00
13015;BME280;6573;57.696;11.950;2023-04-15T04:58:24;101539.94;;;12.01;100.00
13015;BME280;6573;57.696;11.950;2023-04-15T05:00:53;101541.69;;;11.87;100.00
13015;BME280;6573;57.696;11.950;2023-04-15T05:03:21;101549.53;;;11.76;100.00
13015;BME280;6573;57.696;11.950;2023-04-15T05:05:49;101539.84;;;11.74;100.00
13015;BME280;6573;57.696;11.950;2023-04-15T05:08:18;101554.00;;;11.88;100.00
13015;BME280;6573;57.696;11.950;2023-04-15T05:10:47;101554.03;;;12.09;100.00
13015;BME280;6573;57.696;11.950;2023-04-15T05:13:16;101538.13;;;11.76;100.00
13015;BME280;6573;57.696;11.950;2023-04-15T05:15:45;101541.72;;;11.99;100.00
13015;BME280;6573;57.696;11.950;2023-04-15T05:18:13;101546.16;;;12.12;100.00
13015;BME280;6573;57.696;11.950;2023-04-15T05:20:41;101548.81;;;12.27;100.00
13015;BME280;6573;57.696;11.950;2023-04-15T05:23:10;101553.13;;;11.92;100.00
13015;BME280;6573;57.696;11.950;2023-04-15T05:25:38;101548.75;;;11.97;100.00
13015;BME280;6573;57.696;11.950;2023-04-15T05:28:06;101553.03;;;11.72;100.00
13015;BME280;6573;57.696;11.950;2023-04-15T05:30:36;101550.34;;;11.67;100.00
13015;BME280;6573;57.696;11.950;2023-04-15T05:33:04;101560.00;;;11.64;100.00
13015;BME280;6573;57.696;11.950;2023-04-15T05:35:32;101551.22;;;11.60;100.00
13015;BME280;6573;57.696;11.950;2023-04-15T05:38:01;101555.63;;;11.67;100.00
13015;BME280;6573;57.696;11.950;2023-04-15T05:40:29;101555.75;;;11.86;100.00
13015;BME280;6573;57.696;11.950;2023-04-15T05:42:58;101567.97;;;11.72;100.00
13015;BME280;6573;57.696;11.950;2023-04-15T05:45:26;101565.22;;;11.52;100.00
13015;BME280;6573;57.696;11.950;2023-04-15T05:47:55;101573.31;;;11.81;100.00
13015;BME280;6573;57.696;11.950;2023-04-15T05:50:24;101573.34;;;11.93;100.00
13015;BME280;6573;57.696;11.950;2023-04-15T05:52:52;101573.28;;;11.84;100.00
13015;BME280;6573;57.696;11.950;2023-04-15T05:55:20;101586.44;;;11.75;100.00
13015;BME280;6573;57.696;11.950;2023-04-15T05:57:49;101576.72;;;11.67;100.00
13015;BME280;6573;57.696;11.950;2023-04-15T06:00:18;101585.66;;;11.97;100.00
13015;BME280;6573;57.696;11.950;2023-04-15T06:02:46;101587.22;;;11.61;100.00
13015;BME280;6573;57.696;11.950;2023-04-15T06:05:16;101588.16;;;11.69;100.00
13015;BME280;6573;57.696;11.950;2023-04-15T06:07:45;101587.38;;;11.83;100.00
13015;BME280;6573;57.696;11.950;2023-04-15T06:10:14;101582.97;;;11.83;100.00
13015;BME280;6573;57.696;11.950;2023-04-15T06:12:42;101588.97;;;11.59;100.00
13015;BME280;6573;57.696;11.950;2023-04-15T06:15:11;101586.47;;;11.82;100.00
13015;BME280;6573;57.696;11.950;2023-04-15T06:17:39;101590.97;;;12.03;100.00
13015;BME280;6573;57.696;11.950;2023-04-15T06:20:08;101600.59;;;11.93;100.00
13015;BME280;6573;57.696;11.950;2023-04-15T06:22:38;101599.66;;;11.84;100.00
13015;BME280;6573;57.696;11.950;2023-04-15T06:25:07;101599.66;;;11.84;100.00
13015;BME280;6573;57.696;11.950;2023-04-15T06:27:36;101608.59;;;12.28;100.00
13015;BME280;6573;57.696;11.950;2023-04-15T06:30:06;101614.66;;;11.91;100.00
13015;BME280;6573;57.696;11.950;2023-04-15T06:32:34;101605.09;;;12.29;100.00
13015;BME280;6573;57.696;11.950;2023-04-15T06:35:03;101608.59;;;12.22;100.00
13015;BME280;6573;57.696;11.950;2023-04-15T06:37:31;101608.50;;;11.92;100.00
13015;BME280;6573;57.696;11.950;2023-04-15T06:40:01;101612.91;;;11.94;100.00
13015;BME280;6573;57.696;11.950;2023-04-15T06:42:31;101611.09;;;11.89;100.00
13015;BME280;6573;57.696;11.950;2023-04-15T06:44:59;101619.09;;;12.04;100.00
13015;BME280;6573;57.696;11.950;2023-04-15T06:47:28;101622.69;;;12.33;100.00
13015;BME280;6573;57.696;11.950;2023-04-15T06:49:56;101585.81;;;12.45;100.00
13015;BME280;6573;57.696;11.950;2023-04-15T06:52:24;101619.22;;;12.40;100.00
13015;BME280;6573;57.696;11.950;2023-04-15T06:54:52;101629.72;;;12.31;100.00
13015;BME280;6573;57.696;11.950;2023-04-15T06:57:22;101631.44;;;12.17;100.00
13015;BME280;6573;57.696;11.950;2023-04-15T06:59:50;101629.66;;;12.16;100.00
13015;BME280;6573;57.696;11.950;2023-04-15T07:02:20;101633.22;;;12.18;100.00
13015;BME280;6573;57.696;11.950;2023-04-15T07:04:49;101629.59;;;12.01;100.00
13015;BME280;6573;57.696;11.950;2023-04-15T07:07:17;101634.94;;;12.07;100.00
13015;BME280;6573;57.696;11.950;2023-04-15T07:09:45;101638.53;;;12.36;100.00
13015;BME280;6573;57.696;11.950;2023-04-15T07:12:14;101609.56;;;12.68;100.00
13015;BME280;6573;57.696;11.950;2023-04-15T07:14:43;101642.16;;;12.71;100.00
13015;BME280;6573;57.696;11.950;2023-04-15T07:17:12;101639.56;;;13.08;100.00
13015;BME280;6573;57.696;11.950;2023-04-15T07:19:40;101643.03;;;12.93;100.00
13015;BME280;6573;57.696;11.950;2023-04-15T07:22:08;101650.03;;;12.53;100.00
13015;BME280;6573;57.696;11.950;2023-04-15T07:24:36;101649.19;;;12.66;100.00
13015;BME280;6573;57.696;11.950;2023-04-15T07:27:05;101649.19;;;12.78;100.00
13015;BME280;6573;57.696;11.950;2023-04-15T07:29:34;101619.22;;;12.46;100.00
13015;BME280;6573;57.696;11.950;2023-04-15T07:32:04;101648.28;;;12.66;100.00
13015;BME280;6573;57.696;11.950;2023-04-15T07:34:32;101657.97;;;12.68;100.00
13015;BME280;6573;57.696;11.950;2023-04-15T07:37:01;101663.28;;;12.77;100.00
13015;BME280;6573;57.696;11.950;2023-04-15T07:39:29;101660.59;;;12.64;100.00
13015;BME280;6573;57.696;11.950;2023-04-15T07:41:57;101658.81;;;12.48;100.00
13015;BME280;6573;57.696;11.950;2023-04-15T07:44:26;101651.75;;;12.39;100.00
13015;BME280;6573;57.696;11.950;2023-04-15T07:46:54;101666.75;;;12.52;100.00
13015;BME280;6573;57.696;11.950;2023-04-15T07:49:23;101662.38;;;12.75;100.00
13015;BME280;6573;57.696;11.950;2023-04-15T07:51:52;101661.53;;;12.79;100.00
13015;BME280;6573;57.696;11.950;2023-04-15T07:54:21;101665.03;;;12.75;100.00
13015;BME280;6573;57.696;11.950;2023-04-15T07:56:49;101670.34;;;12.93;100.00
13015;BME280;6573;57.696;11.950;2023-04-15T07:59:17;101673.88;;;12.98;100.00
13015;BME280;6573;57.696;11.950;2023-04-15T08:01:45;101676.50;;;12.86;100.00
13015;BME280;6573;57.696;11.950;2023-04-15T08:04:14;101672.16;;;13.07;100.00
13015;BME280;6573;57.696;11.950;2023-04-15T08:06:44;101680.88;;;12.81;100.00
13015;BME280;6573;57.696;11.950;2023-04-15T08:09:13;101687.94;;;12.79;100.00
13015;BME280;6573;57.696;11.950;2023-04-15T08:11:42;101682.66;;;12.88;100.00
13015;BME280;6573;57.696;11.950;2023-04-15T08:14:10;101688.84;;;12.96;100.00
13015;BME280;6573;57.696;11.950;2023-04-15T08:16:38;101689.72;;;12.98;100.00
13015;BME280;6573;57.696;11.950;2023-04-15T08:19:07;101689.75;;;13.11;100.00
13015;BME280;6573;57.696;11.950;2023-04-15T08:21:35;101688.88;;;13.13;100.00
13015;BME280;6573;57.696;11.950;2023-04-15T08:24:05;101691.53;;;13.15;100.00
13015;BME280;6573;57.696;11.950;2023-04-15T08:26:33;101699.44;;;13.13;100.00
13015;BME280;6573;57.696;11.950;2023-04-15T08:29:02;101693.28;;;13.07;100.00
13015;BME280;6573;57.696;11.950;2023-04-15T08:31:30;101696.75;;;13.06;100.00
13015;BME280;6573;57.696;11.950;2023-04-15T08:33:59;101706.50;;;13.40;100.00
13015;BME280;6573;57.696;11.950;2023-04-15T08:36:27;101708.28;;;13.17;100.00
13015;BME280;6573;57.696;11.950;2023-04-15T08:38:55;101703.88;;;13.34;100.00
13015;BME280;6573;57.696;11.950;2023-04-15T08:41:25;101702.09;;;13.18;100.00
13015;BME280;6573;57.696;11.950;2023-04-15T08:43:57;101709.13;;;13.25;100.00
13015;BME280;6573;57.696;11.950;2023-04-15T08:46:26;101702.06;;;12.99;100.00
13015;BME280;6573;57.696;11.950;2023-04-15T08:48:56;101712.66;;;13.18;100.00
13015;BME280;6573;57.696;11.950;2023-04-15T08:51:26;101714.41;;;13.16;100.00
13015;BME280;6573;57.696;11.950;2023-04-15T08:53:54;101710.03;;;13.43;100.00
13015;BME280;6573;57.696;11.950;2023-04-15T08:56:25;101716.19;;;13.23;100.00
13015;BME280;6573;57.696;11.950;2023-04-15T08:58:53;101725.88;;;13.16;100.00
13015;BME280;6573;57.696;11.950;2023-04-15T09:01:22;101725.00;;;13.28;100.00
13015;BME280;6573;57.696;11.950;2023-04-15T09:03:51;101726.78;;;13.53;100.00
13015;BME280;6573;57.696;11.950;2023-04-15T09:06:21;101723.25;;;13.33;100.00
13015;BME280;6573;57.696;11.950;2023-04-15T09:08:50;101723.25;;;13.42;100.00
13015;BME280;6573;57.696;11.950;2023-04-15T09:11:20;101728.53;;;13.33;100.00
13015;BME280;6573;57.696;11.950;2023-04-15T09:13:50;101718.84;;;13.36;100.00
13015;BME280;6573;57.696;11.950;2023-04-15T09:16:18;101730.31;;;13.49;100.00
13015;BME280;6573;57.696;11.950;2023-04-15T09:18:47;101733.78;;;13.09;100.00
13015;BME280;6573;57.696;11.950;2023-04-15T09:21:16;101729.41;;;13.20;100.00
13015;BME280;6573;57.696;11.950;2023-04-15T09:23:54;101730.28;;;13.19;100.00
13015;BME280;6573;57.696;11.950;2023-04-15T09:26:31;101731.19;;;13.43;100.00
13015;BME280;6573;57.696;11.950;2023-04-15T09:29:05;101728.53;;;13.60;100.00
13015;BME280;6573;57.696;11.950;2023-04-15T09:31:35;101728.50;;;13.75;100.00
13015;BME280;6573;57.696;11.950;2023-04-15T09:34:03;101726.72;;;13.98;100.00
13015;BME280;6573;57.696;11.950;2023-04-15T09:36:51;101728.50;;;13.96;100.00
13015;BME280;6573;57.696;11.950;2023-04-15T09:39:19;101728.50;;;13.96;100.00
13015;BME280;6573;57.696;11.950;2023-04-15T09:42:03;101714.28;;;14.26;100.00
13015;BME280;6573;57.696;11.950;2023-04-15T09:44:34;101724.91;;;14.09;100.00
13015;BME280;6573;57.696;11.950;2023-04-15T09:47:02;101719.63;;;14.15;100.00
13015;BME280;6573;57.696;11.950;2023-04-15T09:49:30;101708.09;;;14.28;100.00
13015;BME280;6573;57.696;11.950;2023-04-15T09:51:59;101724.75;;;14.65;100.00
13015;BME280;6573;57.696;11.950;2023-04-15T09:54:33;101715.75;;;14.89;100.00
13015;BME280;6573;57.696;11.950;2023-04-15T09:57:06;101726.34;;;14.95;100.00
13015;BME280;6573;57.696;11.950;2023-04-15T09:59:37;101719.31;;;14.85;100.00
13015;BME280;6573;57.696;11.950;2023-04-15T10:02:06;101715.75;;;14.95;100.00
13015;BME280;6573;57.696;11.950;2023-04-15T10:04:38;101719.16;;;15.09;100.00
13015;BME280;6573;57.696;11.950;2023-04-15T10:07:08;101711.84;;;15.41;100.00
13015;BME280;6573;57.696;11.950;2023-04-15T10:09:37;101685.31;;;15.46;100.00
13015;BME280;6573;57.696;11.950;2023-04-15T10:12:06;101713.41;;;15.70;100.00
13015;BME280;6573;57.696;11.950;2023-04-15T10:14:36;101708.16;;;15.64;100.00
13015;BME280;6573;57.696;11.950;2023-04-15T10:17:06;101720.38;;;15.80;100.00
13015;BME280;6573;57.696;11.950;2023-04-15T10:19:38;101708.72;;;15.93;100.00
13015;BME280;6573;57.696;11.950;2023-04-15T10:22:07;101713.94;;;16.03;100.00
13015;BME280;6573;57.696;11.950;2023-04-15T10:24:37;101711.22;;;16.08;100.00
13015;BME280;6573;57.696;11.950;2023-04-15T10:27:07;101716.44;;;16.17;100.00
13015;BME280;6573;57.696;11.950;2023-04-15T10:29:37;101714.66;;;16.19;100.00
13015;BME280;6573;57.696;11.950;2023-04-15T10:32:06;101709.06;;;16.40;100.00
13015;BME280;6573;57.696;11.950;2023-04-15T10:34:35;101712.00;;;16.17;100.00
13015;BME280;6573;57.696;11.950;2023-04-15T10:37:04;101705.41;;;16.53;100.00
13015;BME280;6573;57.696;11.950;2023-04-15T10:39:41;101717.63;;;16.66;100.00
13015;BME280;6573;57.696;11.950;2023-04-15T10:42:11;101710.72;;;16.50;100.00
13015;BME280;6573;57.696;11.950;2023-04-15T10:44:42;101707.75;;;16.76;100.00
13015;BME280;6573;57.696;11.950;2023-04-15T10:47:14;101708.13;;;17.10;100.00
13015;BME280;6573;57.696;11.950;2023-04-15T10:49:46;101708.00;;;17.19;100.00
13015;BME280;6573;57.696;11.950;2023-04-15T10:52:16;101718.31;;;17.37;100.00
13015;BME280;6573;57.696;11.950;2023-04-15T10:54:45;101708.34;;;17.53;100.00
13015;BME280;6573;57.696;11.950;2023-04-15T10:57:15;101697.44;;;17.68;100.00
13015;BME280;6573;57.696;11.950;2023-04-15T11:00:08;101712.09;;;17.38;100.00
13015;BME280;6573;57.696;11.950;2023-04-15T11:02:38;101705.09;;;17.34;100.00
13015;BME280;6573;57.696;11.950;2023-04-15T11:05:08;101709.28;;;17.47;100.00
13015;BME280;6573;57.696;11.950;2023-04-15T11:07:38;101703.28;;;17.86;100.00
13015;BME280;6573;57.696;11.950;2023-04-15T11:13:23;101699.09;;;18.21;100.00
13015;BME280;6573;57.696;11.950;2023-04-15T11:16:01;101700.88;;;18.19;100.00
13015;BME280;6573;57.696;11.950;2023-04-15T11:18:32;101711.44;;;18.25;100.00
13015;BME280;6573;57.696;11.950;2023-04-15T11:21:02;101711.84;;;18.49;100.00
13015;BME280;6573;57.696;11.950;2023-04-15T11:23:33;101700.28;;;18.50;100.00
13015;BME280;6573;57.696;11.950;2023-04-15T11:26:02;101710.34;;;18.35;100.00
13015;BME280;6573;57.696;11.950;2023-04-15T11:28:35;101709.59;;;18.27;100.00
13015;BME280;6573;57.696;11.950;2023-04-15T11:31:07;101713.63;;;18.46;100.00
13015;BME280;6573;57.696;11.950;2023-04-15T11:33:43;101714.63;;;18.42;100.00
13015;BME280;6573;57.696;11.950;2023-04-15T11:36:12;101717.25;;;18.00;100.00
13015;BME280;6573;57.696;11.950;2023-04-15T11:38:45;101713.53;;;18.07;100.00
13015;BME280;6573;57.696;11.950;2023-04-15T11:41:14;101711.53;;;18.19;100.00
13015;BME280;6573;57.696;11.950;2023-04-15T11:43:47;101697.97;;;17.86;100.00
13015;BME280;6573;57.696;11.950;2023-04-15T11:46:17;101715.78;;;18.29;100.00
13015;BME280;6573;57.696;11.950;2023-04-15T11:48:45;101713.00;;;18.35;100.00
13015;BME280;6573;57.696;11.950;2023-04-15T11:51:14;101724.91;;;18.61;100.00
13015;BME280;6573;57.696;11.950;2023-04-15T11:53:44;101721.22;;;18.67;100.00
13015;BME280;6573;57.696;11.950;2023-04-15T11:56:17;101716.88;;;19.01;100.00
13015;BME280;6573;57.696;11.950;2023-04-15T11:58:46;101720.38;;;19.03;100.00
13015;BME280;6573;57.696;11.950;2023-04-15T12:01:18;101723.16;;;19.35;100.00
13015;BME280;6573;57.696;11.950;2023-04-15T12:03:47;101725.09;;;19.67;100.00
13015;BME280;6573;57.696;11.950;2023-04-15T12:06:17;101716.81;;;19.76;100.00
13015;BME280;6573;57.696;11.950;2023-04-15T12:09:02;101718.84;;;20.00;100.00
13015;BME280;6573;57.696;11.950;2023-04-15T12:11:39;101724.75;;;19.79;100.00
13015;BME280;6573;57.696;11.950;2023-04-15T12:14:15;101711.75;;;19.66;100.00
13015;BME280;6573;57.696;11.950;2023-04-15T12:16:47;101727.84;;;19.63;100.00
13015;BME280;6573;57.696;11.950;2023-04-15T12:19:22;101731.28;;;19.68;100.00
13015;BME280;6573;57.696;11.950;2023-04-15T12:21:53;101733.03;;;19.69;100.00
13015;BME280;6573;57.696;11.950;2023-04-15T12:24:26;101727.84;;;19.63;100.00
13015;BME280;6573;57.696;11.950;2023-04-15T12:26:56;101730.66;;;19.92;100.00
13015;BME280;6573;57.696;11.950;2023-04-15T12:29:26;101730.22;;;20.07;100.00
13015;BME280;6573;57.696;11.950;2023-04-15T12:31:58;101726.16;;;20.26;100.00
13015;BME280;6573;57.696;11.950;2023-04-15T12:34:28;101730.50;;;19.63;100.00
13015;BME280;6573;57.696;11.950;2023-04-15T12:36:58;101737.31;;;19.76;100.00
13015;BME280;6573;57.696;11.950;2023-04-15T12:39:28;101736.41;;;19.77;100.00
13015;BME280;6573;57.696;11.950;2023-04-15T12:41:57;101735.25;;;19.85;100.00
13015;BME280;6573;57.696;11.950;2023-04-15T12:44:26;101738.88;;;19.84;100.00
13015;BME280;6573;57.696;11.950;2023-04-15T12:46:57;101708.56;;;19.52;100.00
13015;BME280;6573;57.696;11.950;2023-04-15T12:49:26;101738.44;;;19.66;100.00
13015;BME280;6573;57.696;11.950;2023-04-15T12:51:56;101741.50;;;19.86;100.00
13015;BME280;6573;57.696;11.950;2023-04-15T12:54:26;101730.41;;;20.01;100.00